Time,TemperatureF,DewpointF,PressureIn,WindDirection,WindDirectionDegrees,WindSpeedMPH,WindSpeedGustMPH,Humidity,HourlyPrecipIn,Conditions,Clouds,dailyrainin,SolarRadiationWatts/m^2,SoftwareType,DateUTC
2013-04-14 00:02:00,30.0,30.0,-100.00,WSW,239,0.0,5.0,100,0.00,,,0.01,0.000000,,2013-04-14 07:02:00,
2013-04-14 00:33:00,30.0,28.0,-100.00,NW,325,0.0,8.0,93,0.00,,,-99.99,0.000000,,2013-04-14 07:33:00,
2013-04-14 00:42:00,30.0,28.0,-100.00,NW,325,0.0,8.0,93,0.00,,,-99.99,0.000000,,2013-04-14 07:42:00,
2013-04-14 00:52:00,30.0,28.0,-100.00,NW,325,0.0,8.0,93,0.00,,,-99.99,0.000000,,2013-04-14 07:52:00,
2013-04-14 01:01:00,30.0,28.0,-100.00,NW,325,0.0,8.0,93,0.00,,,-99.99,0.000000,,2013-04-14 08:01:00,
2013-04-14 01:33:00,29.0,28.0,-100.00,WSW,240,0.0,4.0,96,0.00,,,0.01,0.000000,,2013-04-14 08:33:00,
2013-04-14 01:43:00,29.0,28.0,-100.00,WSW,240,0.0,4.0,96,0.00,,,0.01,0.000000,,2013-04-14 08:43:00,
2013-04-14 01:52:00,29.0,28.0,-100.00,WSW,240,0.0,4.0,96,0.00,,,0.01,0.000000,,2013-04-14 08:52:00,
2013-04-14 02:02:00,29.0,28.0,-100.00,WSW,240,0.0,4.0,96,0.00,,,0.01,0.000000,,2013-04-14 09:02:00,
2013-04-14 02:33:00,29.0,28.0,-100.00,SSW,193,0.0,8.0,97,0.00,,,0.01,0.000000,,2013-04-14 09:33:00,
2013-04-14 02:43:00,29.0,28.0,-100.00,SSW,193,0.0,8.0,97,0.00,,,0.01,0.000000,,2013-04-14 09:43:00,
2013-04-14 02:53:00,29.0,28.0,-100.00,SSW,193,0.0,8.0,97,0.00,,,0.01,0.000000,,2013-04-14 09:53:00,
2013-04-14 03:02:00,29.0,28.0,-100.00,SSW,193,0.0,8.0,97,0.00,,,0.01,0.000000,,2013-04-14 10:02:00,
2013-04-14 03:33:00,30.0,26.0,-100.00,West,263,0.0,6.0,86,0.00,,,0.01,0.000000,,2013-04-14 10:33:00,
2013-04-14 03:43:00,30.0,26.0,-100.00,West,263,0.0,6.0,86,0.00,,,0.01,0.000000,,2013-04-14 10:43:00,
2013-04-14 03:52:00,30.0,26.0,-100.00,West,263,0.0,6.0,86,0.00,,,0.01,0.000000,,2013-04-14 10:52:00,
2013-04-14 04:02:00,30.0,26.0,-100.00,West,263,0.0,6.0,86,0.00,,,0.01,0.000000,,2013-04-14 11:02:00,
2013-04-14 04:33:00,28.0,26.0,-100.00,WSW,252,0.0,7.0,93,0.00,,,0.01,0.000000,,2013-04-14 11:33:00,
2013-04-14 04:42:00,28.0,26.0,-100.00,WSW,252,0.0,7.0,93,0.00,,,0.01,0.000000,,2013-04-14 11:42:00,
2013-04-14 04:53:00,28.0,26.0,-100.00,WSW,252,0.0,7.0,93,0.00,,,0.01,0.000000,,2013-04-14 11:53:00,
2013-04-14 05:02:00,28.0,26.0,-100.00,WSW,252,0.0,7.0,93,0.00,,,0.01,0.000000,,2013-04-14 12:02:00,
2013-04-14 05:32:00,28.0,27.0,-100.00,North,4,0.0,2.0,94,0.00,,,0.01,0.000000,,2013-04-14 12:32:00,
2013-04-14 05:42:00,28.0,27.0,-100.00,North,4,0.0,2.0,94,0.00,,,0.01,0.000000,,2013-04-14 12:42:00,
2013-04-14 05:52:00,28.0,27.0,-100.00,North,4,0.0,2.0,94,0.00,,,0.01,0.000000,,2013-04-14 12:52:00,
2013-04-14 06:02:00,28.0,27.0,-100.00,North,4,0.0,2.0,94,0.00,,,0.01,0.000000,,2013-04-14 13:02:00,
2013-04-14 06:33:00,28.0,25.0,-100.00,NNE,21,0.0,5.0,88,0.00,,,0.01,0.000000,,2013-04-14 13:33:00,
2013-04-14 06:43:00,28.0,25.0,-100.00,NNE,21,0.0,5.0,88,0.00,,,0.01,0.000000,,2013-04-14 13:43:00,
2013-04-14 06:52:00,28.0,25.0,-100.00,NNE,21,0.0,5.0,88,0.00,,,0.01,0.000000,,2013-04-14 13:52:00,
2013-04-14 07:02:00,28.0,25.0,-100.00,NNE,21,0.0,5.0,88,0.00,,,0.01,0.000000,,2013-04-14 14:02:00,
2013-04-14 07:32:00,29.0,26.0,-100.00,WNW,301,0.0,2.0,87,0.00,,,0.01,1.000000,,2013-04-14 14:32:00,
2013-04-14 07:42:00,29.0,26.0,-100.00,WNW,301,0.0,2.0,87,0.00,,,0.01,1.000000,,2013-04-14 14:42:00,
2013-04-14 07:52:00,29.0,26.0,-100.00,WNW,301,0.0,2.0,87,0.00,,,0.01,1.000000,,2013-04-14 14:52:00,
2013-04-14 08:02:00,29.0,26.0,-100.00,WNW,301,0.0,2.0,87,0.00,,,0.01,1.000000,,2013-04-14 15:02:00,
2013-04-14 08:33:00,34.0,26.0,-100.00,South,176,1.0,4.0,73,0.00,,,0.01,31.000000,,2013-04-14 15:33:00,
2013-04-14 08:43:00,34.0,26.0,-100.00,South,176,1.0,4.0,73,0.00,,,0.01,31.000000,,2013-04-14 15:43:00,
2013-04-14 08:53:00,34.0,26.0,-100.00,South,176,1.0,4.0,73,0.00,,,0.01,31.000000,,2013-04-14 15:53:00,
2013-04-14 09:03:00,34.0,26.0,-100.00,South,176,1.0,4.0,73,0.00,,,0.01,31.000000,,2013-04-14 16:03:00,
2013-04-14 09:33:00,38.0,28.0,-100.00,South,176,1.0,6.0,67,0.00,,,0.01,183.000000,,2013-04-14 16:33:00,
2013-04-14 09:43:00,38.0,28.0,-100.00,South,176,1.0,6.0,67,0.00,,,0.01,183.000000,,2013-04-14 16:43:00,
2013-04-14 09:53:00,38.0,28.0,-100.00,South,176,1.0,6.0,67,0.00,,,0.01,183.000000,,2013-04-14 16:53:00,
2013-04-14 10:02:00,38.0,28.0,-100.00,South,176,1.0,6.0,67,0.00,,,0.01,183.000000,,2013-04-14 17:02:00,
2013-04-14 10:33:00,36.0,28.0,-100.00,SSE,150,2.0,6.0,72,0.00,,,0.01,468.000000,,2013-04-14 17:33:00,
2013-04-14 10:42:00,36.0,28.0,-100.00,SSE,150,2.0,6.0,72,0.00,,,0.01,468.000000,,2013-04-14 17:42:00,
2013-04-14 10:53:00,36.0,28.0,-100.00,SSE,150,2.0,6.0,72,0.00,,,0.01,468.000000,,2013-04-14 17:53:00,
2013-04-14 11:02:00,36.0,28.0,-100.00,SSE,150,2.0,6.0,72,0.00,,,0.01,468.000000,,2013-04-14 18:02:00,
2013-04-14 11:33:00,35.0,27.0,-100.00,South,189,2.0,10.0,71,0.06,,,0.06,302.000000,,2013-04-14 18:33:00,
2013-04-14 11:43:00,35.0,27.0,-100.00,South,189,2.0,10.0,71,0.06,,,0.06,302.000000,,2013-04-14 18:43:00,
2013-04-14 11:53:00,35.0,27.0,-100.00,South,189,2.0,10.0,71,0.06,,,0.06,302.000000,,2013-04-14 18:53:00,
2013-04-14 12:02:00,35.0,27.0,-100.00,South,189,2.0,10.0,71,0.06,,,0.06,302.000000,,2013-04-14 19:02:00,
2013-04-14 12:32:00,43.0,33.0,-100.00,South,178,4.0,11.0,68,0.05,,,0.11,574.000000,,2013-04-14 19:32:00,
2013-04-14 12:43:00,43.0,33.0,-100.00,South,178,4.0,11.0,68,0.05,,,0.11,574.000000,,2013-04-14 19:43:00,
2013-04-14 12:52:00,43.0,33.0,-100.00,South,178,4.0,11.0,68,0.05,,,0.11,574.000000,,2013-04-14 19:52:00,
2013-04-14 13:02:00,43.0,33.0,-100.00,South,178,4.0,11.0,68,0.05,,,0.11,574.000000,,2013-04-14 20:02:00,
2013-04-14 13:33:00,44.0,29.0,-100.00,South,169,4.0,10.0,55,0.00,,,0.11,828.000000,,2013-04-14 20:33:00,
2013-04-14 13:43:00,44.0,29.0,-100.00,South,169,4.0,10.0,55,0.00,,,0.11,828.000000,,2013-04-14 20:43:00,
2013-04-14 13:52:00,44.0,29.0,-100.00,South,169,4.0,10.0,55,0.00,,,0.11,828.000000,,2013-04-14 20:52:00,
2013-04-14 14:02:00,44.0,29.0,-100.00,South,169,4.0,10.0,55,0.00,,,0.11,828.000000,,2013-04-14 21:02:00,
2013-04-14 14:33:00,39.0,28.0,-100.00,East,82,0.0,12.0,64,0.00,,,0.11,257.000000,,2013-04-14 21:33:00,
2013-04-14 14:43:00,39.0,28.0,-100.00,East,82,0.0,12.0,64,0.00,,,0.11,257.000000,,2013-04-14 21:43:00,
2013-04-14 14:53:00,39.0,28.0,-100.00,East,82,0.0,12.0,64,0.00,,,0.11,257.000000,,2013-04-14 21:53:00,
2013-04-14 15:02:00,39.0,28.0,-100.00,East,82,0.0,12.0,64,0.00,,,0.11,257.000000,,2013-04-14 22:02:00,
2013-04-14 15:33:00,34.0,27.0,-100.00,WSW,253,1.0,4.0,76,0.00,,,0.11,86.000000,,2013-04-14 22:33:00,
2013-04-14 15:44:00,34.0,27.0,-100.00,WSW,253,1.0,4.0,76,0.00,,,0.11,86.000000,,2013-04-14 22:44:00,
2013-04-14 15:52:00,34.0,27.0,-100.00,WSW,253,1.0,4.0,76,0.00,,,0.11,86.000000,,2013-04-14 22:52:00,
2013-04-14 16:02:00,34.0,27.0,-100.00,WSW,253,1.0,4.0,76,0.00,,,0.11,86.000000,,2013-04-14 23:02:00,
2013-04-14 16:33:00,33.0,26.0,-100.00,NE,45,0.0,6.0,75,-99.99,,,0.11,37.000000,,2013-04-14 23:33:00,
2013-04-14 16:43:00,33.0,26.0,-100.00,NE,45,0.0,6.0,75,-99.99,,,0.11,37.000000,,2013-04-14 23:43:00,
2013-04-14 16:52:00,33.0,26.0,-100.00,NE,45,0.0,6.0,75,-99.99,,,0.11,37.000000,,2013-04-14 23:52:00,
2013-04-14 17:01:00,33.0,26.0,-100.00,NE,45,0.0,6.0,75,-99.99,,,0.11,37.000000,,2013-04-15 00:01:00,
2013-04-14 17:33:00,32.0,25.0,-100.00,NW,324,0.0,7.0,74,0.00,,,-99.99,83.000000,,2013-04-15 00:33:00,
2013-04-14 17:42:00,32.0,25.0,-100.00,NW,324,0.0,7.0,74,0.00,,,-99.99,83.000000,,2013-04-15 00:42:00,
2013-04-14 17:52:00,32.0,25.0,-100.00,NW,324,0.0,7.0,74,0.00,,,-99.99,83.000000,,2013-04-15 00:52:00,
2013-04-14 18:02:00,32.0,25.0,-100.00,NW,324,0.0,7.0,74,0.00,,,-99.99,83.000000,,2013-04-15 01:02:00,
2013-04-14 18:33:00,33.0,27.0,-100.00,SE,136,0.0,4.0,79,-99.99,,,0.11,107.000000,,2013-04-15 01:33:00,
2013-04-14 18:42:00,33.0,27.0,-100.00,SE,136,0.0,4.0,79,-99.99,,,0.11,107.000000,,2013-04-15 01:42:00,
2013-04-14 18:52:00,33.0,27.0,-100.00,SE,136,0.0,4.0,79,-99.99,,,0.11,107.000000,,2013-04-15 01:52:00,
2013-04-14 19:02:00,33.0,27.0,-100.00,SE,136,0.0,4.0,79,-99.99,,,0.11,107.000000,,2013-04-15 02:02:00,
2013-04-14 19:32:00,33.0,27.0,-100.00,West,281,0.0,2.0,78,0.00,,,0.11,43.000000,,2013-04-15 02:32:00,
2013-04-14 19:42:00,33.0,27.0,-100.00,West,281,0.0,2.0,78,0.00,,,0.11,43.000000,,2013-04-15 02:42:00,
2013-04-14 19:52:00,33.0,27.0,-100.00,West,281,0.0,2.0,78,0.00,,,0.11,43.000000,,2013-04-15 02:52:00,
2013-04-14 20:02:00,33.0,27.0,-100.00,West,281,0.0,2.0,78,0.00,,,0.11,43.000000,,2013-04-15 03:02:00,
2013-04-14 20:33:00,32.0,26.0,-100.00,North,7,0.0,0.0,77,0.00,,,0.11,8.000000,,2013-04-15 03:33:00,
2013-04-14 20:43:00,32.0,26.0,-100.00,North,7,0.0,0.0,77,0.00,,,0.11,8.000000,,2013-04-15 03:43:00,
2013-04-14 20:54:00,32.0,26.0,-100.00,North,7,0.0,0.0,77,0.00,,,0.11,8.000000,,2013-04-15 03:54:00,
2013-04-14 21:02:00,32.0,26.0,-100.00,North,7,0.0,0.0,77,0.00,,,0.11,8.000000,,2013-04-15 04:02:00,
2013-04-14 21:33:00,31.0,26.0,-100.00,NW,318,0.0,0.0,80,0.00,,,0.11,0.000000,,2013-04-15 04:33:00,
2013-04-14 21:43:00,31.0,26.0,-100.00,NW,318,0.0,0.0,80,0.00,,,0.11,0.000000,,2013-04-15 04:43:00,
2013-04-14 21:52:00,31.0,26.0,-100.00,NW,318,0.0,0.0,80,0.00,,,0.11,0.000000,,2013-04-15 04:52:00,
2013-04-14 22:02:00,31.0,26.0,-100.00,NW,318,0.0,0.0,80,0.00,,,0.11,0.000000,,2013-04-15 05:02:00,
2013-04-14 22:33:00,32.0,28.0,-100.00,West,273,0.0,0.0,85,0.00,,,0.11,0.000000,,2013-04-15 05:33:00,
2013-04-14 22:43:00,32.0,28.0,-100.00,West,273,0.0,0.0,85,0.00,,,0.11,0.000000,,2013-04-15 05:43:00,
2013-04-14 22:52:00,32.0,28.0,-100.00,West,273,0.0,0.0,85,0.00,,,0.11,0.000000,,2013-04-15 05:52:00,
2013-04-14 23:01:00,32.0,28.0,-100.00,West,273,0.0,0.0,85,0.00,,,0.11,0.000000,,2013-04-15 06:01:00,
2013-04-14 23:34:00,31.0,28.0,-100.00,NNW,328,0.0,0.0,90,0.00,,,0.11,0.000000,,2013-04-15 06:34:00,
2013-04-14 23:43:00,31.0,28.0,-100.00,NNW,328,0.0,0.0,90,0.00,,,0.11,0.000000,,2013-04-15 06:43:00,
2013-04-14 23:52:00,31.0,28.0,-100.00,NNW,328,0.0,0.0,90,0.00,,,0.11,0.000000,,2013-04-15 06:52:00,